Time,TemperatureF,DewpointF,PressureIn,WindDirection,WindDirectionDegrees,WindSpeedMPH,WindSpeedGustMPH,Humidity,HourlyPrecipIn,Conditions,Clouds,dailyrainin,SolarRadiationWatts/m^2,SoftwareType,DateUTC
2013-02-06 00:01:00,2.0,1.0,-100.00,West,276,0.0,6.0,95,0.00,,,0.00,1.000000,,2013-02-06 06:01:00,
2013-02-06 00:22:00,5.0,5.0,-100.00,West,273,2.0,5.0,100,0.00,,,0.00,1.000000,,2013-02-06 06:22:00,
2013-02-06 00:32:00,5.0,5.0,-100.00,West,273,2.0,5.0,100,0.00,,,0.00,1.000000,,2013-02-06 06:32:00,
2013-02-06 01:32:00,3.0,2.0,-100.00,West,269,2.0,4.0,94,0.00,,,0.00,1.000000,,2013-02-06 07:32:00,
2013-02-06 01:42:00,3.0,2.0,-100.00,West,269,2.0,4.0,94,0.00,,,0.00,1.000000,,2013-02-06 07:42:00,
2013-02-06 01:52:00,3.0,2.0,-100.00,West,269,2.0,4.0,94,0.00,,,0.00,1.000000,,2013-02-06 07:52:00,
2013-02-06 02:01:00,3.0,2.0,-100.00,West,269,2.0,4.0,94,0.00,,,0.00,1.000000,,2013-02-06 08:01:00,
2013-02-06 02:32:00,3.0,2.0,-100.00,NW,324,0.0,2.0,97,0.00,,,0.00,1.000000,,2013-02-06 08:32:00,
2013-02-06 02:42:00,3.0,2.0,-100.00,NW,324,0.0,2.0,97,0.00,,,0.00,1.000000,,2013-02-06 08:42:00,
2013-02-06 02:53:00,3.0,2.0,-100.00,NW,324,0.0,2.0,97,0.00,,,0.00,1.000000,,2013-02-06 08:53:00,
2013-02-06 03:01:00,3.0,2.0,-100.00,NW,324,0.0,2.0,97,0.00,,,0.00,1.000000,,2013-02-06 09:01:00,
2013-02-06 04:32:00,3.0,2.0,-100.00,SSW,210,1.0,2.0,94,-99.99,,,0.00,1.000000,,2013-02-06 10:32:00,
2013-02-06 04:42:00,3.0,2.0,-100.00,SSW,210,1.0,2.0,94,-99.99,,,0.00,1.000000,,2013-02-06 10:42:00,
2013-02-06 04:52:00,3.0,2.0,-100.00,SSW,210,1.0,2.0,94,-99.99,,,0.00,1.000000,,2013-02-06 10:52:00,
2013-02-06 05:01:00,3.0,2.0,-100.00,SSW,210,1.0,2.0,94,-99.99,,,0.00,1.000000,,2013-02-06 11:01:00,
2013-02-06 05:02:00,0.0,-1.0,-100.00,South,189,1.0,3.0,97,0.00,,,0.00,1.000000,,2013-02-06 11:02:00,
2013-02-06 05:32:00,0.0,-1.0,-100.00,South,189,1.0,3.0,97,0.00,,,0.00,1.000000,,2013-02-06 11:32:00,
2013-02-06 05:42:00,0.0,-1.0,-100.00,South,189,1.0,3.0,97,0.00,,,0.00,1.000000,,2013-02-06 11:42:00,
2013-02-06 05:53:00,0.0,-1.0,-100.00,South,189,1.0,3.0,97,0.00,,,0.00,1.000000,,2013-02-06 11:53:00,
2013-02-06 06:32:00,0.0,-2.0,-100.00,South,190,2.0,4.0,93,0.00,,,0.00,1.000000,,2013-02-06 12:32:00,
2013-02-06 06:42:00,0.0,-2.0,-100.00,South,190,2.0,4.0,93,0.00,,,0.00,1.000000,,2013-02-06 12:42:00,
2013-02-06 06:52:00,0.0,-2.0,-100.00,South,190,2.0,4.0,93,0.00,,,0.00,1.000000,,2013-02-06 12:52:00,
2013-02-06 07:01:00,0.0,-2.0,-100.00,South,190,2.0,4.0,93,0.00,,,0.00,1.000000,,2013-02-06 13:01:00,
2013-02-06 07:32:00,-1.0,-2.0,-100.00,South,188,2.0,3.0,97,0.00,,,-99.99,1.000000,,2013-02-06 13:32:00,
2013-02-06 07:42:00,-1.0,-2.0,-100.00,South,188,2.0,3.0,97,0.00,,,-99.99,1.000000,,2013-02-06 13:42:00,
2013-02-06 07:52:00,-1.0,-2.0,-100.00,South,188,2.0,3.0,97,0.00,,,-99.99,1.000000,,2013-02-06 13:52:00,
2013-02-06 08:32:00,0.0,-1.0,-100.00,South,180,2.0,3.0,96,0.00,,,0.00,19.000000,,2013-02-06 14:32:00,
2013-02-06 08:42:00,0.0,-1.0,-100.00,South,180,2.0,3.0,96,0.00,,,0.00,19.000000,,2013-02-06 14:42:00,
2013-02-06 08:52:00,0.0,-1.0,-100.00,South,180,2.0,3.0,96,0.00,,,0.00,19.000000,,2013-02-06 14:52:00,
2013-02-06 09:01:00,0.0,-1.0,-100.00,South,180,2.0,3.0,96,0.00,,,0.00,19.000000,,2013-02-06 15:01:00,
2013-02-06 09:32:00,9.0,6.0,-100.00,SW,218,3.0,5.0,89,0.00,,,0.00,184.000000,,2013-02-06 15:32:00,
2013-02-06 10:01:00,9.0,6.0,-100.00,SW,218,3.0,5.0,89,0.00,,,0.00,184.000000,,2013-02-06 16:01:00,
2013-02-06 10:02:00,14.0,8.0,-100.00,SW,216,3.0,6.0,78,0.00,,,0.00,268.000000,,2013-02-06 16:02:00,
2013-02-06 10:22:00,14.0,8.0,-100.00,SW,216,3.0,6.0,78,0.00,,,0.00,268.000000,,2013-02-06 16:22:00,
2013-02-06 10:32:00,14.0,8.0,-100.00,SW,216,3.0,6.0,78,0.00,,,0.00,268.000000,,2013-02-06 16:32:00,
2013-02-06 10:42:00,14.0,8.0,-100.00,SW,216,3.0,6.0,78,0.00,,,0.00,268.000000,,2013-02-06 16:42:00,
2013-02-06 10:52:00,14.0,8.0,-100.00,SW,216,3.0,6.0,78,0.00,,,0.00,268.000000,,2013-02-06 16:52:00,
2013-02-06 11:22:00,19.0,11.0,-100.00,SSW,208,4.0,7.0,71,0.00,,,0.00,253.000000,,2013-02-06 17:22:00,
2013-02-06 11:32:00,19.0,11.0,-100.00,SSW,208,4.0,7.0,71,0.00,,,0.00,253.000000,,2013-02-06 17:32:00,
2013-02-06 11:42:00,19.0,11.0,-100.00,SSW,208,4.0,7.0,71,0.00,,,0.00,253.000000,,2013-02-06 17:42:00,
2013-02-06 11:52:00,19.0,11.0,-100.00,SSW,208,4.0,7.0,71,0.00,,,0.00,253.000000,,2013-02-06 17:52:00,
2013-02-06 12:01:00,19.0,11.0,-100.00,SSW,208,4.0,7.0,71,0.00,,,0.00,253.000000,,2013-02-06 18:01:00,
2013-02-06 12:23:00,20.0,11.0,-100.00,SW,219,5.0,9.0,67,0.00,,,0.00,314.000000,,2013-02-06 18:23:00,
2013-02-06 12:33:00,20.0,11.0,-100.00,SW,219,5.0,9.0,67,0.00,,,0.00,314.000000,,2013-02-06 18:33:00,
2013-02-06 12:42:00,20.0,11.0,-100.00,SW,219,5.0,9.0,67,0.00,,,0.00,314.000000,,2013-02-06 18:42:00,
2013-02-06 12:52:00,20.0,11.0,-100.00,SW,219,5.0,9.0,67,0.00,,,0.00,314.000000,,2013-02-06 18:52:00,
2013-02-06 13:01:00,20.0,11.0,-100.00,SW,219,5.0,9.0,67,0.00,,,0.00,314.000000,,2013-02-06 19:01:00,
2013-02-06 13:32:00,21.0,12.0,-100.00,SW,218,4.0,9.0,67,0.00,,,0.00,233.000000,,2013-02-06 19:32:00,
2013-02-06 13:42:00,21.0,12.0,-100.00,SW,218,4.0,9.0,67,0.00,,,0.00,233.000000,,2013-02-06 19:42:00,
2013-02-06 13:52:00,21.0,12.0,-100.00,SW,218,4.0,9.0,67,0.00,,,0.00,233.000000,,2013-02-06 19:52:00,
2013-02-06 14:01:00,21.0,12.0,-100.00,SW,218,4.0,9.0,67,0.00,,,0.00,233.000000,,2013-02-06 20:01:00,
2013-02-06 14:32:00,20.0,15.0,-100.00,SSW,204,2.0,10.0,80,0.00,,,0.00,149.000000,,2013-02-06 20:32:00,
2013-02-06 14:42:00,20.0,15.0,-100.00,SSW,204,2.0,10.0,80,0.00,,,0.00,149.000000,,2013-02-06 20:42:00,
2013-02-06 14:52:00,20.0,15.0,-100.00,SSW,204,2.0,10.0,80,0.00,,,0.00,149.000000,,2013-02-06 20:52:00,
2013-02-06 15:01:00,20.0,15.0,-100.00,SSW,204,2.0,10.0,80,0.00,,,0.00,149.000000,,2013-02-06 21:01:00,
2013-02-06 15:32:00,20.0,17.0,-100.00,SSW,202,2.0,5.0,87,0.00,,,-99.99,63.000000,,2013-02-06 21:32:00,
2013-02-06 15:42:00,20.0,17.0,-100.00,SSW,202,2.0,5.0,87,0.00,,,-99.99,63.000000,,2013-02-06 21:42:00,
2013-02-06 15:52:00,20.0,17.0,-100.00,SSW,202,2.0,5.0,87,0.00,,,-99.99,63.000000,,2013-02-06 21:52:00,
2013-02-06 16:01:00,20.0,17.0,-100.00,SSW,202,2.0,5.0,87,0.00,,,-99.99,63.000000,,2013-02-06 22:01:00,
2013-02-06 16:22:00,18.0,16.0,-100.00,South,170,3.0,9.0,92,0.00,,,0.00,19.000000,,2013-02-06 22:22:00,
2013-02-06 16:32:00,18.0,16.0,-100.00,South,170,3.0,9.0,92,0.00,,,0.00,19.000000,,2013-02-06 22:32:00,
2013-02-06 16:42:00,18.0,16.0,-100.00,South,170,3.0,9.0,92,0.00,,,0.00,19.000000,,2013-02-06 22:42:00,
2013-02-06 16:52:00,18.0,16.0,-100.00,South,170,3.0,9.0,92,0.00,,,0.00,19.000000,,2013-02-06 22:52:00,
2013-02-06 17:01:00,18.0,16.0,-100.00,South,170,3.0,9.0,92,0.00,,,0.00,19.000000,,2013-02-06 23:01:00,
2013-02-06 17:32:00,18.0,17.0,-100.00,ESE,122,2.0,6.0,96,0.00,,,0.00,5.000000,,2013-02-06 23:32:00,
2013-02-06 17:42:00,18.0,17.0,-100.00,ESE,122,2.0,6.0,96,0.00,,,0.00,5.000000,,2013-02-06 23:42:00,
2013-02-06 17:52:00,18.0,17.0,-100.00,ESE,122,2.0,6.0,96,0.00,,,0.00,5.000000,,2013-02-06 23:52:00,
2013-02-06 18:01:00,18.0,17.0,-100.00,ESE,122,2.0,6.0,96,0.00,,,0.00,5.000000,,2013-02-07 00:01:00,
2013-02-06 18:32:00,17.0,17.0,-100.00,SE,141,3.0,6.0,98,0.00,,,0.00,1.000000,,2013-02-07 00:32:00,
2013-02-06 18:42:00,17.0,17.0,-100.00,SE,141,3.0,6.0,98,0.00,,,0.00,1.000000,,2013-02-07 00:42:00,
2013-02-06 18:52:00,17.0,17.0,-100.00,SE,141,3.0,6.0,98,0.00,,,0.00,1.000000,,2013-02-07 00:52:00,
2013-02-06 19:01:00,17.0,17.0,-100.00,SE,141,3.0,6.0,98,0.00,,,0.00,1.000000,,2013-02-07 01:01:00,
2013-02-06 19:21:00,17.0,17.0,-100.00,SE,144,4.0,10.0,98,0.00,,,0.00,1.000000,,2013-02-07 01:21:00,
2013-02-06 19:32:00,17.0,17.0,-100.00,SE,144,4.0,10.0,98,0.00,,,0.00,1.000000,,2013-02-07 01:32:00,
2013-02-06 19:42:00,17.0,17.0,-100.00,SE,144,4.0,10.0,98,0.00,,,0.00,1.000000,,2013-02-07 01:42:00,
2013-02-06 19:52:00,17.0,17.0,-100.00,SE,144,4.0,10.0,98,0.00,,,0.00,1.000000,,2013-02-07 01:52:00,
2013-02-06 20:01:00,17.0,17.0,-100.00,SE,144,4.0,10.0,98,0.00,,,0.00,1.000000,,2013-02-07 02:01:00,
2013-02-06 20:02:00,17.0,17.0,-100.00,SE,128,3.0,7.0,98,0.00,,,0.00,1.000000,,2013-02-07 02:02:00,
2013-02-06 20:32:00,17.0,17.0,-100.00,SE,128,3.0,7.0,98,0.00,,,0.00,1.000000,,2013-02-07 02:32:00,
2013-02-06 20:42:00,17.0,17.0,-100.00,SE,128,3.0,7.0,98,0.00,,,0.00,1.000000,,2013-02-07 02:42:00,
2013-02-06 20:52:00,17.0,17.0,-100.00,SE,128,3.0,7.0,98,0.00,,,0.00,1.000000,,2013-02-07 02:52:00,
2013-02-06 21:22:00,18.0,18.0,-100.00,SSE,147,3.0,9.0,98,0.00,,,0.00,1.000000,,2013-02-07 03:22:00,
2013-02-06 21:32:00,18.0,18.0,-100.00,SSE,147,3.0,9.0,98,0.00,,,0.00,1.000000,,2013-02-07 03:32:00,
2013-02-06 21:42:00,18.0,18.0,-100.00,SSE,147,3.0,9.0,98,0.00,,,0.00,1.000000,,2013-02-07 03:42:00,
2013-02-06 21:52:00,18.0,18.0,-100.00,SSE,147,3.0,9.0,98,0.00,,,0.00,1.000000,,2013-02-07 03:52:00,
2013-02-06 22:01:00,18.0,18.0,-100.00,SSE,147,3.0,9.0,98,0.00,,,0.00,1.000000,,2013-02-07 04:01:00,
2013-02-06 22:02:00,17.0,17.0,-100.00,ESE,105,1.0,5.0,99,0.00,,,0.00,1.000000,,2013-02-07 04:02:00,
2013-02-06 22:22:00,17.0,17.0,-100.00,ESE,105,1.0,5.0,99,0.00,,,0.00,1.000000,,2013-02-07 04:22:00,
2013-02-06 22:32:00,17.0,17.0,-100.00,ESE,105,1.0,5.0,99,0.00,,,0.00,1.000000,,2013-02-07 04:32:00,
2013-02-06 22:42:00,17.0,17.0,-100.00,ESE,105,1.0,5.0,99,0.00,,,0.00,1.000000,,2013-02-07 04:42:00,
2013-02-06 22:53:00,17.0,17.0,-100.00,ESE,105,1.0,5.0,99,0.00,,,0.00,1.000000,,2013-02-07 04:53:00,
2013-02-06 23:02:00,17.0,17.0,-100.00,ESE,115,2.0,5.0,100,0.00,,,0.00,1.000000,,2013-02-07 05:02:00,
2013-02-06 23:22:00,17.0,17.0,-100.00,ESE,115,2.0,5.0,100,0.00,,,0.00,1.000000,,2013-02-07 05:22:00,
2013-02-06 23:32:00,17.0,17.0,-100.00,ESE,115,2.0,5.0,100,0.00,,,0.00,1.000000,,2013-02-07 05:32:00,
2013-02-06 23:42:00,17.0,17.0,-100.00,ESE,115,2.0,5.0,100,0.00,,,0.00,1.000000,,2013-02-07 05:42:00,
2013-02-06 23:52:00,17.0,17.0,-100.00,ESE,115,2.0,5.0,100,0.00,,,0.00,1.000000,,2013-02-07 05:52:00,